METAR Data
IDs: Format: Raw Decoded Include TAF

Data at: 0029 UTC 19 Nov 2018

PAGM 190004Z AUTO 35021KT 3SM -SN BR OVC008 01/00 A2954 RMK AO2 RAE2359SNB2359 CIG 005V012 P0000 FZRANO
PAGM 182356Z AUTO 35020G25KT 7SM -RA OVC010 01/00 A2954 RMK AO2 PK WND 35028/2257 UPE06RAB06 CIG 007V012 SLP011 P0000 60000 T00060000 10006 20000 51006 FZRANO
PAGM 182314Z AUTO 35019G26KT 10SM -RA OVC010 01/00 A2954 RMK AO2 PK WND 35028/2257 UPE06RAB06 P0000 FZRANO
PAGM 182256Z AUTO 35021G27KT 10SM UP OVC008 00/M01 A2954 RMK AO2 PK WND 35028/2239 RAB27E40UPB40SNE27 CIG 005V012 SLP010 P0000 T00001006 FZRANO
PAGM 182241Z AUTO 35023G28KT 4SM UP BR OVC006 00/M01 A2954 RMK AO2 PK WND 35028/2239 RAB27E40UPB40SNE27 CIG 005V011 P0000 FZRANO
PAGM 182219Z AUTO 35022KT 2 1/2SM -SN BR OVC006 01/00 A2954 RMK AO2 PK WND 35026/2219 CIG 004V009 P0000 FZRANO
PAGM 182156Z AUTO 35022G29KT 1 1/2SM -SN BR OVC008 01/00 A2953 RMK AO2 PK WND 36030/2123 CIG 005V011 SLP008 P0000 T00060000 FZRANO
PAGM 182147Z AUTO 35024G28KT 1 3/4SM -SN BR OVC008 01/00 A2954 RMK AO2 PK WND 36030/2123 CIG 005V011 P0000 FZRANO
PAGM 182140Z AUTO 35024G27KT 3SM -SN BR OVC008 01/00 A2953 RMK AO2 PK WND 36030/2123 CIG 005V011 P0000 FZRANO
PAGM 182056Z AUTO 36023G29KT 2 1/2SM -SN BR OVC006 01/00 A2953 RMK AO2 PK WND 36030/2021 VIS 1 3/4V3 RAE16SNB16 CIG 005V010 SLP005 P0000 60000 T00060000 51009 FZRANO
PAGM 182023Z AUTO 36024G30KT 2SM -SN BR BKN006 OVC013 01/00 A2952 RMK AO2 PK WND 36030/2021 VIS 1 1/2V3 RAE16SNB16 CIG 005V011 P0000 FZRANO
PAGM 181956Z AUTO 36023G30KT 4SM RA BR BKN008 OVC012 01/00 A2952 RMK AO2 PK WND 36030/1949 RAE02B33SNB02E33 CIG 005V011 SLP002 P0000 T00060000 FZRANO
PAGM 181856Z AUTO 35021KT 4SM -RA BR OVC008 01/00 A2951 RMK AO2 PK WND 35029/1814 RAE02B22SNB02E22 CIG 005V011 SLP999 P0000 T00060000 FZRANO
PAGM 181756Z AUTO 35025G29KT 4SM RA BR OVC006 01/M01 A2950 RMK AO2 PK WND 36030/1740 SNB19E32 CIG 005V012 SLP996 P0000 60000 T00061006 10011 20006 50002 FZRANO
PAGM 181656Z AUTO 35021KT 7SM -RA OVC008 01/M01 A2950 RMK AO2 PK WND 36031/1600 CIG 005V012 SLP996 P0000 T00061006 FZRANO
PAGM 181632Z AUTO 36021KT 6SM -RA BR BKN006 OVC012 01/M01 A2950 RMK AO2 PK WND 36031/1600 P0000 FZRANO
PAGM 181623Z AUTO 35021G29KT 5SM -RA BR SCT006 OVC012 01/M01 A2950 RMK AO2 PK WND 36031/1600 P0000 FZRANO
PAGM 181556Z AUTO 36023G30KT 10SM -RA BKN010 OVC016 01/00 A2950 RMK AO2 PK WND 36031/1544 CIG 008V014 SLP995 P0000 T00060000 FZRANO
PAGM 181545Z AUTO 36027G31KT 8SM -RA OVC010 01/00 A2950 RMK AO2 PK WND 36031/1544 CIG 006V014 P0000 FZRANO
PAGM 181525Z AUTO 36023KT 7SM -RA OVC008 01/00 A2950 RMK AO2 PK WND 01031/1501 CIG 006V012 P0000 FZRANO
PAGM 181505Z AUTO 36022G31KT 7SM -RA BKN010 OVC014 01/00 A2949 RMK AO2 PK WND 01031/1501 CIG 006V013 P0000 FZRANO
PAGM 181456Z AUTO 01027G31KT 7SM -RA BKN008 OVC012 01/00 A2949 RMK AO2 PK WND 01033/1427 CIG 006V010 SLP993 P0000 60000 T00060000 50001 FZRANO
PAGM 181356Z AUTO 01025G34KT 5SM -RA BR BKN008 OVC014 01/00 A2949 RMK AO2 PK WND 01034/1353 CIG 005V010 SLP994 P0000 T00060000 FZRANO
PAGM 181343Z AUTO 01027G30KT 6SM -RA BR BKN010 OVC016 01/00 A2949 RMK AO2 PK WND 36033/1321 CIG 008V012 P0000 FZRANO
PAGM 181304Z AUTO 36027G32KT 6SM -RA BR BKN008 OVC014 01/00 A2949 RMK AO2 PK WND 36032/1303 CIG 006V011 P0000 FZRANO
PAGM 181256Z AUTO 01026KT 6SM -RA BR OVC010 01/00 A2949 RMK AO2 PK WND 01032/1245 RAE1157B21SNB1157E21 CIG 006V014 SLP992 P0000 T00060000 FZRANO
PAGM 181253Z AUTO 01026G32KT 6SM -RA BR OVC010 01/00 A2949 RMK AO2 PK WND 01032/1245 RAE1157B21SNB1157E21 CIG 006V014 P0000 FZRANO
PAGM 181156Z AUTO 01026G33KT 6SM -RA BR BKN008 OVC012 01/00 A2949 RMK AO2 PK WND 01033/1149 CIG 006V010 SLP991 P0000 60000 70001 T00060000 10011 20006 50002 FZRANO
PAGM 181056Z AUTO 01024G29KT 7SM -RA OVC008 01/00 A2949 RMK AO2 PK WND 02032/1004 SLP992 P0000 T00110000 FZRANO
PAGM 181045Z AUTO 01026G31KT 6SM -RA BR BKN008 OVC013 01/00 A2949 RMK AO2 PK WND 02032/1004 CIG 006V011 P0000 FZRANO
PAGM 181034Z AUTO 02023G31KT 8SM -RA OVC010 01/00 A2949 RMK AO2 PK WND 02032/1004 CIG 006V013 P0000 FZRANO
PAGM 180956Z AUTO 02025G30KT 6SM -RA BR OVC008 01/00 A2949 RMK AO2 PK WND 02033/0946 RAE29B54UPB38E54SNB29E38 CIG 006V011 SLP991 P0000 T00110000 FZRANO
PAGM 180856Z AUTO 02026G31KT 6SM -RA BR OVC006 01/00 A2948 RMK AO2 PK WND 02033/0807 RAB51SNE51 CIG 005V009 SLP990 P0000 60000 T00110000 400220006 53004 FZRANO
PAGM 180756Z AUTO 03024G31KT 5SM -SN BR BKN008 OVC013 01/00 A2947 RMK AO2 PK WND 02031/0756 UPE38B54E56RAB0659E54SNB56 CIG 004V011 SLP987 P0000 T00110000 FZRANO
PAGM 180656Z AUTO 02028G32KT 6SM UP BR BKN008 OVC012 01/00 A2947 RMK AO2 PK WND 02033/0619 RAE00B23E40UPB00E10B40SNB10E23 CIG 005V011 SLP985 P0000 T00110000 FZRANO
PAGM 180556Z AUTO 03025G31KT 7SM -RA OVC006 01/00 A2947 RMK AO2 PK WND 02031/0554 RAE0457B33UPB32E33SNB0457E32 CIG 005V012 SLP986 P0000 60001 T00110000 10011 20006 52003 FZRANO
PAGM 180456Z AUTO 03024KT 6SM -RA BR BKN008 OVC019 01/00 A2947 RMK AO2 PK WND 03030/0434 UPE36RAB48SNB12E22B36E48 CIG 005V011 SLP984 P0000 T00110000 FZRANO
PAGM 180356Z AUTO 03023G30KT 6SM UP BR BKN006 OVC012 01/00 A2947 RMK AO2 PK WND 03030/0352 UPE11B43RAB21E32SNB11E43 SLP985 P0000 T00110000 FZRANO
PAGM 180256Z AUTO 03025KT 6SM UP BR BKN008 OVC012 01/00 A2946 RMK AO2 PK WND 02029/0245 UPB20E24B55SNE20B24E55 SLP983 P0000 60001 T00110000 56005 FZRANO
PAGM 180156Z AUTO 03022KT 6SM -SN BR OVC008 01/00 A2946 RMK AO2 PK WND 03029/0141 UPB07E14B31E42SNE07B14E31B42 CIG 006V011 SLP983 P0001 T00110000 FZRANO
PAGM 180056Z AUTO 03022KT 5SM -SN BR BKN006 BKN011 OVC020 01/00 A2947 RMK AO2 PK WND 03028/0053 RAE56UPB31E32SNB17E31B56 SLP985 P0000 T00110000 FZRANO
PAGM 180015Z AUTO 04019G26KT 7SM -RA BKN008 OVC018 01/00 A2947 RMK AO2 PK WND 03026/0008 P0000 FZRANO
PAGM 172356Z AUTO 03022KT 8SM -RA OVC010 01/00 A2948 RMK AO2 PK WND 03026/2311 RAB16 CIG 007V012 SLP988 P0000 60000 T00110000 10017 20011 57006 FZRANO
PAGM 172342Z AUTO 04021KT 10SM -RA OVC010 01/00 A2948 RMK AO2 PK WND 03026/2311 RAB16 CIG 007V012 P0000 FZRANO
PAGM 172256Z AUTO 03021G26KT 6SM BR OVC008 01/00 A2948 RMK AO2 PK WND 03026/2254 UPB45E55 CIG 007V011 SLP990 P0000 T00110000 FZRANO
PAGM 172156Z AUTO 03022KT 10SM OVC010 02/00 A2949 RMK AO2 UPB37E49 SLP992 P0000 T00170000 FZRANO
PAGM 172056Z AUTO 03019KT 10SM OVC012 02/00 A2949 RMK AO2 PK WND 04026/2006 SLP994 60000 T00170000 55001 FZRANO
PAGM 171956Z AUTO 04019KT 10SM OVC012 02/00 A2949 RMK AO2 PK WND 04026/1945 UPE19RAB05E20 SLP993 P0000 T00170000 FZRANO
PAGM 171856Z AUTO 04020KT 10SM UP BKN010 OVC014 01/00 A2950 RMK AO2 UPB07E21B47 CIG 008V012 SLP994 P0000 T00110000 FZRANO
PAGM 171756Z AUTO 04016KT 10SM OVC008 01/00 A2950 RMK AO2 UPE07 SLP995 P0000 60000 T00110000 10022 20011 53004 FZRANO
PAGM 171656Z AUTO 05020KT 10SM UP OVC008 01/01 A2949 RMK AO2 UPE13B42RAB13E42 CIG 005V011 SLP992 P0000 T00110006 FZRANO
PAGM 171556Z AUTO 06017KT 10SM UP OVC006 02/01 A2948 RMK AO2 UPE19B39RAB19E39 SLP990 P0000 T00170011 FZRANO
PAGM 171456Z AUTO 07015KT 10SM UP OVC006 02/01 A2949 RMK AO2 UPE1358B38RAB1358E38 CIG 005V010 SLP991 P0000 60000 T00170011 56010 FZRANO
PAGM 171425Z AUTO 06015KT 10SM -RA OVC006 02/02 A2949 RMK AO2 UPE1358RAB1358 P0000 FZRANO
PAGM 171356Z AUTO 07013KT 8SM UP OVC004 02/02 A2949 RMK AO2 UPE03B47RAB03E47 SLP994 P0000 T00170017 FZRANO
PAGM 171325Z AUTO 08012KT 8SM -RA OVC004 02/02 A2950 RMK AO2 UPE03RAB03 CIG 003V009 P0000 FZRANO
PAGM 171256Z AUTO 08006KT 9SM UP BKN006 OVC009 02/01 A2951 RMK AO2 SLP998 P0000 T00170011 FZRANO
PAGM 171242Z AUTO 08004KT 10SM UP BKN007 BKN010 OVC014 02/01 A2951 RMK AO2 P0000 FZRANO
PAGM 171230Z AUTO 08010KT 10SM UP FEW007 BKN010 OVC014 02/01 A2951 RMK AO2 P0000 FZRANO